createdAt,value
2022-12-11T00:01:45.310Z,18.27
2022-12-11T00:06:50.862Z,26.85
2022-12-11T00:11:53.268Z,21.35
2022-12-11T00:16:55.804Z,21.73
2022-12-11T00:21:58.221Z,36.80
2022-12-11T00:27:00.689Z,30.00
2022-12-11T00:32:03.046Z,24.33
2022-12-11T00:37:05.425Z,26.45
2022-12-11T00:42:09.419Z,26.42
2022-12-11T00:47:11.784Z,29.85
2022-12-11T00:52:14.323Z,28.80
2022-12-11T00:57:16.725Z,28.50
2022-12-11T01:02:19.081Z,25.20
2022-12-11T01:07:21.483Z,13.88
2022-12-11T01:12:23.952Z,7.20
2022-12-11T01:17:26.222Z,2.75
2022-12-11T01:22:28.494Z,10.30
2022-12-11T01:27:30.792Z,4.93
2022-12-11T01:32:33.290Z,3.13
2022-12-11T01:37:35.872Z,2.75
2022-12-11T01:42:38.251Z,3.00
2022-12-11T01:47:40.876Z,1.45
2022-12-11T01:52:45.547Z,2.25
2022-12-11T01:57:50.485Z,4.38
2022-12-11T02:02:52.844Z,2.60
2022-12-11T02:07:59.744Z,3.65
2022-12-11T02:13:14.981Z,9.60
2022-12-11T02:18:20.083Z,2.10
2022-12-11T02:23:46.281Z,3.22
2022-12-11T02:28:56.417Z,2.20
2022-12-11T02:34:23.187Z,5.00
2022-12-11T02:39:27.493Z,2.78
2022-12-11T02:44:32.648Z,4.07
2022-12-11T02:49:36.051Z,6.05
2022-12-11T02:54:41.836Z,3.72
2022-12-11T02:59:45.957Z,6.15
2022-12-11T03:04:48.531Z,5.88
2022-12-11T03:09:51.521Z,6.88
2022-12-11T03:14:54.413Z,6.10
2022-12-11T03:20:02.667Z,5.93
2022-12-11T03:25:10.682Z,4.63
2022-12-11T03:30:19.450Z,8.23
2022-12-11T03:35:31.895Z,4.63
2022-12-11T03:40:37.594Z,8.52
2022-12-11T03:45:41.713Z,5.88
2022-12-11T03:50:44.896Z,6.85
2022-12-11T03:55:50.034Z,11.15
2022-12-11T04:00:52.483Z,10.40
2022-12-11T04:05:56.436Z,9.55
2022-12-11T04:11:17.344Z,8.05
2022-12-11T04:16:19.707Z,4.95
2022-12-11T04:21:40.599Z,5.65
2022-12-11T04:26:45.454Z,6.07
2022-12-11T04:31:47.912Z,5.68
2022-12-11T04:36:50.949Z,6.07
2022-12-11T04:41:53.350Z,9.95
2022-12-11T04:46:55.720Z,10.00
2022-12-11T04:51:58.015Z,8.30
2022-12-11T04:57:00.498Z,4.75
2022-12-11T05:02:02.922Z,3.67
2022-12-11T05:07:05.261Z,4.43
2022-12-11T05:12:07.765Z,9.75
2022-12-11T05:17:10.130Z,8.90
2022-12-11T05:22:12.517Z,10.05
2022-12-11T05:27:14.973Z,8.52
2022-12-11T05:32:17.346Z,5.32
2022-12-11T05:37:19.733Z,8.05
2022-12-11T05:42:28.550Z,6.35
2022-12-11T05:47:32.174Z,8.65
2022-12-11T05:52:34.574Z,7.10
2022-12-11T05:57:36.846Z,7.13
2022-12-11T06:02:39.254Z,11.52
2022-12-11T06:07:41.594Z,9.98
2022-12-11T06:12:43.980Z,10.52
2022-12-11T06:17:46.287Z,9.77
2022-12-11T06:22:49.066Z,9.70
2022-12-11T06:27:51.602Z,12.25
2022-12-11T06:32:53.914Z,8.40
2022-12-11T06:37:56.481Z,13.35
2022-12-11T06:42:58.765Z,12.10
2022-12-11T06:48:01.058Z,14.32
2022-12-11T06:53:04.397Z,14.25
2022-12-11T06:58:06.730Z,16.42
2022-12-11T07:03:10.714Z,14.38
2022-12-11T07:08:13.040Z,13.35
2022-12-11T07:13:15.517Z,14.93
2022-12-11T07:18:17.860Z,9.93
2022-12-11T07:23:20.199Z,10.70
2022-12-11T07:28:22.553Z,13.40
2022-12-11T07:33:24.879Z,12.63
2022-12-11T07:38:27.451Z,15.75
2022-12-11T07:43:30.003Z,13.13
2022-12-11T07:48:32.831Z,20.40
2022-12-11T07:53:35.172Z,20.90
2022-12-11T07:58:39.625Z,19.10
2022-12-11T08:03:43.172Z,22.02
2022-12-11T08:08:47.426Z,22.77
2022-12-11T08:13:50.475Z,25.25
2022-12-11T08:18:54.464Z,22.33
2022-12-11T08:23:57.349Z,19.35
2022-12-11T08:29:01.444Z,21.33
2022-12-11T08:34:04.078Z,20.42
2022-12-11T08:39:06.565Z,20.17
2022-12-11T08:44:16.600Z,17.75
2022-12-11T08:49:19.711Z,18.42
2022-12-11T08:54:22.239Z,21.88
2022-12-11T08:59:26.135Z,25.92
2022-12-11T09:04:28.739Z,31.55
2022-12-11T09:09:31.325Z,25.20
2022-12-11T09:14:33.843Z,22.77
2022-12-11T09:19:36.310Z,19.20
2022-12-11T09:24:40.050Z,18.77
2022-12-11T09:29:42.423Z,16.55
2022-12-11T09:34:45.403Z,31.73
2022-12-11T09:39:48.003Z,24.05
2022-12-11T09:45:03.507Z,25.17
2022-12-11T09:50:12.038Z,22.55
2022-12-11T09:55:18.239Z,21.33
2022-12-11T10:00:40.335Z,21.42
2022-12-11T10:05:48.456Z,9.57
2022-12-11T10:11:28.648Z,11.85
2022-12-11T10:16:44.768Z,13.10
2022-12-11T10:21:50.031Z,9.38
2022-12-11T10:26:58.928Z,8.15
2022-12-11T10:32:02.099Z,10.97
2022-12-11T10:37:04.595Z,23.42
2022-12-11T10:42:19.655Z,4.72
2022-12-11T10:47:22.101Z,16.75
2022-12-11T12:40:07.323Z,12.30
2022-12-11T12:45:30.328Z,10.30
2022-12-11T12:50:40.920Z,11.95
2022-12-11T12:55:44.720Z,9.65
2022-12-11T13:00:47.935Z,14.98
2022-12-11T13:06:11.596Z,7.75
2022-12-11T13:11:17.050Z,7.30
2022-12-11T13:16:19.366Z,13.70
2022-12-11T13:21:28.659Z,19.83
2022-12-11T13:26:33.290Z,4.13
2022-12-11T13:31:40.594Z,2.65
2022-12-11T13:36:49.396Z,2.20
2022-12-11T13:42:22.793Z,2.47
2022-12-11T13:47:26.326Z,3.88
2022-12-11T13:52:29.145Z,3.50
2022-12-11T13:57:31.615Z,3.45
2022-12-11T14:02:43.093Z,1.13
2022-12-11T14:07:52.440Z,1.65
2022-12-11T14:13:02.579Z,1.65
2022-12-11T14:18:06.210Z,5.00
2022-12-11T14:23:18.661Z,3.60
2022-12-11T14:28:22.121Z,7.57
2022-12-11T14:33:31.763Z,3.85
2022-12-11T14:44:07.111Z,3.13
2022-12-11T14:49:22.820Z,6.35
2022-12-11T14:54:51.799Z,5.30
2022-12-11T14:59:55.616Z,8.88
2022-12-11T15:05:18.725Z,8.18
2022-12-11T15:10:27.633Z,9.18
2022-12-11T15:15:33.446Z,15.67
2022-12-11T15:20:35.954Z,12.98
2022-12-11T15:25:38.387Z,13.27
2022-12-11T15:30:41.083Z,5.18
2022-12-11T15:35:55.131Z,28.00
2022-12-11T15:40:58.344Z,32.58
2022-12-11T15:46:02.888Z,8.70
2022-12-11T15:51:05.819Z,9.00
2022-12-11T15:56:13.769Z,23.85
2022-12-11T16:01:16.122Z,15.48
2022-12-11T16:06:18.439Z,16.02
2022-12-11T16:11:20.741Z,12.57
2022-12-11T16:16:23.088Z,14.95
2022-12-11T16:21:25.408Z,18.30
2022-12-11T16:26:27.709Z,21.98
2022-12-11T16:31:30.068Z,25.10
2022-12-11T16:36:32.541Z,12.35
2022-12-11T16:41:34.869Z,21.85
2022-12-11T16:46:38.067Z,21.25
2022-12-11T16:51:40.514Z,10.07
2022-12-11T16:56:43.154Z,8.60
2022-12-11T17:01:45.834Z,5.72
2022-12-11T17:06:49.105Z,10.30
2022-12-11T17:11:51.503Z,14.70
2022-12-11T17:16:53.896Z,8.52
2022-12-11T17:21:57.496Z,4.95
2022-12-11T17:27:00.291Z,7.10
2022-12-11T17:32:03.745Z,8.48
2022-12-11T17:37:06.537Z,12.15
2022-12-11T17:42:08.930Z,13.93
2022-12-11T17:47:12.579Z,14.85
2022-12-11T17:52:15.017Z,17.30
2022-12-11T17:57:17.447Z,17.02
2022-12-11T18:02:19.840Z,12.57
2022-12-11T18:07:23.059Z,19.80
2022-12-11T18:12:25.452Z,17.58
2022-12-11T18:17:27.993Z,14.93
2022-12-11T18:22:30.295Z,6.85
2022-12-11T18:27:32.518Z,7.60
2022-12-11T18:32:35.310Z,13.82
2022-12-11T18:37:38.440Z,19.10
2022-12-11T18:42:40.679Z,18.73
2022-12-11T18:47:42.951Z,16.25
2022-12-11T18:52:45.487Z,16.70
2022-12-11T18:57:48.819Z,44.33
2022-12-11T19:02:53.120Z,15.23
2022-12-11T19:07:55.390Z,22.27
2022-12-11T19:12:57.905Z,25.55
2022-12-11T19:18:00.379Z,35.22
2022-12-11T19:23:02.834Z,47.22
2022-12-11T19:28:05.744Z,21.75
2022-12-11T19:33:07.969Z,16.63
2022-12-11T19:38:10.435Z,9.15
2022-12-11T19:43:12.736Z,18.40
2022-12-11T19:48:15.337Z,16.52
2022-12-11T19:53:17.660Z,12.57
2022-12-11T19:58:20.557Z,13.45
2022-12-11T20:03:22.915Z,25.05
2022-12-11T20:08:44.205Z,23.35
2022-12-11T20:13:51.013Z,18.83
2022-12-11T20:18:55.145Z,63.78
2022-12-11T20:23:57.675Z,28.63
2022-12-11T20:28:59.925Z,22.45
2022-12-11T20:34:02.722Z,18.15
2022-12-11T20:39:05.584Z,20.75
2022-12-11T20:44:08.085Z,22.35
2022-12-11T20:49:13.354Z,19.42
2022-12-11T20:54:15.585Z,14.57
2022-12-11T20:59:18.155Z,20.73
2022-12-11T21:04:20.425Z,20.75
2022-12-11T21:09:26.042Z,17.63
2022-12-11T21:14:29.522Z,8.20
2022-12-11T21:19:31.781Z,5.88
2022-12-11T21:24:34.547Z,11.73
2022-12-11T21:29:36.823Z,19.15
2022-12-11T21:34:39.079Z,15.65
2022-12-11T21:39:41.330Z,15.70
2022-12-11T21:50:06.397Z,51.45
2022-12-11T21:55:09.147Z,43.45
2022-12-11T22:00:12.312Z,38.70
2022-12-11T22:05:14.981Z,41.38
2022-12-11T22:10:17.409Z,34.10
2022-12-11T22:15:20.101Z,28.35
2022-12-11T22:20:22.505Z,34.50
2022-12-11T22:25:25.126Z,50.17
2022-12-11T22:30:27.727Z,45.35
2022-12-11T22:35:30.140Z,19.63
2022-12-11T22:40:32.581Z,11.65
2022-12-11T22:45:39.784Z,7.72
2022-12-11T22:50:42.426Z,13.57
2022-12-11T22:55:44.710Z,13.75
2022-12-11T23:00:47.523Z,18.35
2022-12-11T23:05:49.950Z,20.10
2022-12-11T23:10:52.888Z,12.60
2022-12-11T23:15:55.141Z,13.95
2022-12-11T23:20:57.835Z,16.02
2022-12-11T23:26:00.372Z,14.48
2022-12-11T23:31:02.959Z,7.20
2022-12-11T23:36:05.852Z,7.57
2022-12-11T23:41:10.651Z,7.57
2022-12-11T23:46:16.539Z,8.77
2022-12-11T23:51:21.031Z,2.65
2022-12-11T23:56:26.728Z,4.13
